createdAt,value
2022-08-23T07:41:39.260Z,3.00
2022-08-23T07:44:08.695Z,2.77
2022-08-23T07:46:36.944Z,2.53
2022-08-23T07:49:04.534Z,2.70
2022-08-23T07:51:33.359Z,3.63
2022-08-23T07:54:03.391Z,2.77
2022-08-23T07:56:30.403Z,2.87
2022-08-23T07:58:57.330Z,2.63
2022-08-23T08:01:26.963Z,2.63
2022-08-23T08:03:55.515Z,2.77
2022-08-23T08:06:28.942Z,2.43
2022-08-23T08:08:56.522Z,2.47
2022-08-23T08:11:30.891Z,2.73
2022-08-23T08:14:01.897Z,2.77
2022-08-23T08:16:34.518Z,3.23
2022-08-23T08:19:03.646Z,2.40
2022-08-23T08:21:30.266Z,2.50
2022-08-23T08:23:58.658Z,2.53
2022-08-23T08:26:25.832Z,2.87
2022-08-23T08:28:52.474Z,2.37
2022-08-23T08:31:19.124Z,2.53
2022-08-23T08:33:45.745Z,2.60
2022-08-23T08:36:39.051Z,2.40
2022-08-23T08:39:10.512Z,2.60
2022-08-23T08:42:05.522Z,2.33
2022-08-23T08:44:42.687Z,3.07
2022-08-23T08:47:17.016Z,2.57
2022-08-23T08:49:51.225Z,2.90
2022-08-23T08:52:24.791Z,2.40
2022-08-23T08:55:02.161Z,1.90
2022-08-23T08:57:37.863Z,2.13
2022-08-23T09:00:23.587Z,2.17
2022-08-23T09:02:51.091Z,2.10
2022-08-23T09:05:36.874Z,2.10
2022-08-23T09:08:28.160Z,2.23
2022-08-23T09:11:30.316Z,1.97
2022-08-23T09:14:14.222Z,2.00
2022-08-23T09:16:58.109Z,2.30
2022-08-23T09:19:25.354Z,2.93
2022-08-23T09:22:06.588Z,2.20
2022-08-23T09:24:33.277Z,2.03
2022-08-23T09:27:00.111Z,2.00
2022-08-23T09:29:29.950Z,2.20
2022-08-23T09:32:26.422Z,1.90
2022-08-23T09:35:06.788Z,2.47
2022-08-23T09:37:47.803Z,2.03
2022-08-23T09:40:35.217Z,1.90
2022-08-23T09:43:25.981Z,2.20
2022-08-23T09:45:52.545Z,2.20
2022-08-23T09:48:41.142Z,2.13
2022-08-23T09:51:24.136Z,2.10
2022-08-23T09:54:04.851Z,1.87
2022-08-23T09:56:35.557Z,2.40
2022-08-23T09:59:02.242Z,2.40
2022-08-23T10:01:38.729Z,2.33
2022-08-23T10:04:25.347Z,2.13
2022-08-23T10:06:52.872Z,1.90
2022-08-23T10:09:37.413Z,1.97
2022-08-23T10:12:04.042Z,2.40
2022-08-23T10:14:34.125Z,2.20
2022-08-23T10:17:25.815Z,1.93
2022-08-23T10:20:22.091Z,2.60
2022-08-23T10:23:11.857Z,2.13
2022-08-23T10:25:45.089Z,3.23
2022-08-23T10:28:46.926Z,2.63
2022-08-23T10:31:36.961Z,2.30
2022-08-23T10:34:40.881Z,2.20
2022-08-23T10:37:14.264Z,2.43
2022-08-23T10:40:03.695Z,2.00
2022-08-23T10:42:46.491Z,2.30
2022-08-23T10:45:29.809Z,2.50
2022-08-23T10:48:21.418Z,2.33
2022-08-23T10:50:55.921Z,2.30
2022-08-23T10:53:36.222Z,1.97
2022-08-23T10:56:03.866Z,2.30
2022-08-23T10:58:54.324Z,2.27
2022-08-23T11:01:48.511Z,2.50
2022-08-23T11:04:49.904Z,2.40
2022-08-23T11:07:25.835Z,1.70
2022-08-23T11:09:58.394Z,1.83
2022-08-23T11:12:29.050Z,1.97
2022-08-23T11:15:07.669Z,1.87
2022-08-23T11:17:49.227Z,1.90
2022-08-23T11:20:50.854Z,1.90
2022-08-23T11:23:35.898Z,2.20
2022-08-23T11:26:07.378Z,1.80
2022-08-23T11:28:42.015Z,1.90
2022-08-23T11:31:11.740Z,1.87
2022-08-23T11:34:11.254Z,1.80
2022-08-23T11:36:38.106Z,2.00
2022-08-23T11:39:12.022Z,1.97
2022-08-23T11:41:54.053Z,1.87
2022-08-23T11:44:33.171Z,1.90
2022-08-23T11:47:03.511Z,1.77
2022-08-23T11:49:33.159Z,1.90
2022-08-23T11:52:21.441Z,1.83
2022-08-23T11:55:17.919Z,2.00
2022-08-23T11:58:18.754Z,2.00
2022-08-23T12:01:12.416Z,2.10
2022-08-23T12:03:52.037Z,2.03
2022-08-23T12:06:40.580Z,2.03
2022-08-23T12:09:22.639Z,1.80
2022-08-23T12:11:55.183Z,1.90
2022-08-23T12:14:30.930Z,1.97
2022-08-23T12:17:26.417Z,1.70
2022-08-23T12:20:16.219Z,1.77
2022-08-23T12:23:00.532Z,2.87
2022-08-23T12:25:30.645Z,1.97
2022-08-23T12:28:39.631Z,2.20
2022-08-23T12:31:24.453Z,2.00
2022-08-23T12:33:54.087Z,1.87
2022-08-23T12:36:54.397Z,2.00
2022-08-23T12:39:23.455Z,1.77
2022-08-23T12:41:59.467Z,1.70
2022-08-23T12:44:28.361Z,1.40
2022-08-23T12:46:55.836Z,1.53
2022-08-23T12:49:35.543Z,1.70
2022-08-23T12:52:07.983Z,1.70
2022-08-23T12:54:49.834Z,2.03
2022-08-23T12:57:25.670Z,1.60
2022-08-23T13:00:16.734Z,1.50
2022-08-23T13:03:15.649Z,1.60
2022-08-23T13:05:45.955Z,1.70
2022-08-23T13:08:34.453Z,1.60
2022-08-23T13:11:07.809Z,1.90
2022-08-23T13:13:37.584Z,2.00
2022-08-23T13:16:32.451Z,1.50
2022-08-23T13:19:22.243Z,1.50
2022-08-23T13:22:08.249Z,1.38
2022-08-23T13:24:39.480Z,1.67
2022-08-23T13:27:17.798Z,1.73
2022-08-23T13:29:57.049Z,1.70
2022-08-23T13:32:34.318Z,1.60
2022-08-23T13:35:34.405Z,1.90
2022-08-23T13:38:22.691Z,1.37
2022-08-23T13:41:08.909Z,1.63
2022-08-23T13:43:44.280Z,1.53
2022-08-23T13:46:22.236Z,1.63
2022-08-23T13:48:57.164Z,1.47
2022-08-23T13:51:30.515Z,1.70
2022-08-23T13:54:00.074Z,2.00
2022-08-23T13:56:29.604Z,1.88
2022-08-23T13:59:00.429Z,1.60
2022-08-23T14:01:27.995Z,1.50
2022-08-23T14:03:54.759Z,1.73
2022-08-23T14:06:21.504Z,1.53
2022-08-23T14:08:48.558Z,1.93
2022-08-23T14:11:16.105Z,1.57
2022-08-23T14:13:48.322Z,1.57
2022-08-23T14:16:40.424Z,1.30
2022-08-23T14:19:55.209Z,1.70
2022-08-23T14:21:56.748Z,1.40
2022-08-23T14:24:23.358Z,1.50
2022-08-23T14:26:52.247Z,1.50
2022-08-23T14:29:22.571Z,2.03
2022-08-23T14:31:52.690Z,1.63
2022-08-23T14:34:20.714Z,1.70
2022-08-23T14:39:34.902Z,1.37
2022-08-23T14:42:02.516Z,1.33
2022-08-23T14:44:33.312Z,1.50
2022-08-23T14:47:03.925Z,1.20
2022-08-23T14:49:30.525Z,1.40
2022-08-23T14:51:57.144Z,1.50
2022-08-23T14:54:26.198Z,1.27
2022-08-23T14:56:53.486Z,1.50
2022-08-23T14:59:20.530Z,1.50
2022-08-23T15:01:50.108Z,1.40
2022-08-23T15:04:19.936Z,1.40
2022-08-23T15:07:13.991Z,1.50
2022-08-23T15:09:34.427Z,1.67
2022-08-23T15:14:47.972Z,1.60
2022-08-23T15:17:15.076Z,1.30
2022-08-23T15:19:41.763Z,1.47
2022-08-23T15:22:18.375Z,1.73
2022-08-23T15:24:48.259Z,1.53
2022-08-23T15:27:14.877Z,1.60
2022-08-23T15:29:41.514Z,1.90
2022-08-23T15:32:08.132Z,1.60
2022-08-23T15:34:37.225Z,1.90
2022-08-23T15:37:06.701Z,1.83
2022-08-23T15:39:33.370Z,2.07
2022-08-23T15:41:59.972Z,2.17
2022-08-23T15:44:26.584Z,1.70
2022-08-23T15:46:54.796Z,2.07
2022-08-23T15:49:22.633Z,1.90
2022-08-23T15:51:49.226Z,1.80
2022-08-23T15:54:15.817Z,1.80
2022-08-23T15:56:46.659Z,1.80
2022-08-23T15:59:14.885Z,1.60
2022-08-23T16:01:42.091Z,1.97
2022-08-23T16:04:09.960Z,1.67
2022-08-23T16:06:38.135Z,1.77
2022-08-23T16:09:06.825Z,1.97
2022-08-23T16:11:33.761Z,2.00
2022-08-23T16:14:00.381Z,1.90
2022-08-23T16:16:31.276Z,2.43
2022-08-23T16:19:00.532Z,1.77
2022-08-23T16:21:29.367Z,1.57
2022-08-23T16:23:57.518Z,2.33
2022-08-23T16:26:32.377Z,1.80
2022-08-23T16:29:03.427Z,1.87
2022-08-23T16:31:38.617Z,1.60
2022-08-23T16:34:12.078Z,2.00
2022-08-23T16:36:41.268Z,1.67
2022-08-23T16:39:09.543Z,1.63
2022-08-23T16:41:36.264Z,2.00
2022-08-23T16:44:03.637Z,1.50
2022-08-23T16:46:30.359Z,1.77
2022-08-23T16:48:57.004Z,1.60
2022-08-23T16:51:23.623Z,1.70
2022-08-23T16:53:55.603Z,2.00
2022-08-23T16:56:29.458Z,1.87
2022-08-23T16:58:56.828Z,1.80
2022-08-23T17:01:23.861Z,1.70
2022-08-23T17:03:50.855Z,1.80
2022-08-23T17:06:18.164Z,2.43
2022-08-23T17:08:45.159Z,1.87
2022-08-23T17:11:19.215Z,1.90
2022-08-23T17:13:46.617Z,2.17
2022-08-23T17:16:13.397Z,2.10
2022-08-23T17:18:40.666Z,2.03
2022-08-23T17:21:08.348Z,2.10
2022-08-23T17:23:39.289Z,2.10
2022-08-23T17:26:07.472Z,2.17
2022-08-23T17:28:34.173Z,2.50
2022-08-23T17:31:01.392Z,1.97
2022-08-23T17:33:28.039Z,2.30
2022-08-23T17:35:54.704Z,2.40
2022-08-23T17:38:21.413Z,2.17
2022-08-23T17:40:49.216Z,2.00
2022-08-23T17:43:15.850Z,2.20
2022-08-23T17:45:46.250Z,2.43
2022-08-23T17:48:14.173Z,2.40
2022-08-23T17:50:41.949Z,2.30
2022-08-23T17:53:09.084Z,2.20
2022-08-23T17:55:36.582Z,2.20
2022-08-23T17:58:05.045Z,2.57
2022-08-23T18:00:33.774Z,2.30
2022-08-23T18:03:00.797Z,2.43
2022-08-23T18:05:29.388Z,2.40
2022-08-23T18:07:56.040Z,2.30
2022-08-23T18:10:23.336Z,2.80
2022-08-23T18:12:49.942Z,2.53
2022-08-23T18:15:17.298Z,2.50
2022-08-23T18:17:44.302Z,2.93
2022-08-23T18:20:11.866Z,2.63
2022-08-23T18:22:39.087Z,2.67
2022-08-23T18:25:08.682Z,3.40
2022-08-23T18:27:54.178Z,2.53
2022-08-23T18:30:21.101Z,2.43
2022-08-23T18:32:47.791Z,3.13
2022-08-23T18:35:14.487Z,2.37
2022-08-23T18:37:41.745Z,2.67
2022-08-23T18:40:10.256Z,3.10
2022-08-23T18:42:37.222Z,2.60
2022-08-23T18:45:05.371Z,2.63
2022-08-23T18:47:31.982Z,2.50
2022-08-23T18:49:58.666Z,2.50
2022-08-23T18:52:27.086Z,3.37
2022-08-23T18:54:57.961Z,3.00
2022-08-23T18:57:25.230Z,3.00
2022-08-23T18:59:51.822Z,3.10
2022-08-23T19:02:19.478Z,3.27
2022-08-23T19:04:46.274Z,2.70
2022-08-23T19:07:12.971Z,3.43
2022-08-23T19:09:40.694Z,3.13
2022-08-23T19:12:07.862Z,2.87
2022-08-23T19:14:35.622Z,2.60
2022-08-23T19:17:03.811Z,2.57
2022-08-23T19:19:30.798Z,2.97
2022-08-23T19:21:58.373Z,2.80
2022-08-23T19:24:25.167Z,3.00
2022-08-23T19:26:52.515Z,2.53
2022-08-23T19:29:20.556Z,2.90
2022-08-23T19:31:48.407Z,2.57
2022-08-23T19:34:17.485Z,2.50
2022-08-23T19:36:47.600Z,2.60
2022-08-23T19:39:17.811Z,2.80
2022-08-23T19:41:45.143Z,2.70
2022-08-23T19:44:11.925Z,2.70
2022-08-23T19:46:41.847Z,2.50
2022-08-23T19:49:10.141Z,2.63
2022-08-23T19:51:37.516Z,3.20
2022-08-23T19:54:10.923Z,2.93
2022-08-23T19:56:46.774Z,3.20
2022-08-23T19:59:17.939Z,3.00
2022-08-23T20:01:45.392Z,2.93
2022-08-23T20:04:12.647Z,2.60
2022-08-23T20:06:39.716Z,2.80
2022-08-23T20:09:07.077Z,3.13
2022-08-23T20:11:34.288Z,3.20
2022-08-23T20:14:01.298Z,2.80
2022-08-23T20:16:28.920Z,3.03
2022-08-23T20:18:55.659Z,2.73
2022-08-23T20:21:23.587Z,2.47
2022-08-23T20:24:06.336Z,2.67
2022-08-23T20:26:45.611Z,2.80
2022-08-23T20:29:19.047Z,2.93
2022-08-23T20:31:59.622Z,3.23
2022-08-23T20:34:28.315Z,3.20
2022-08-23T20:36:56.188Z,2.50
2022-08-23T20:39:24.365Z,2.90
2022-08-23T20:41:52.479Z,2.70
2022-08-23T20:44:21.104Z,3.10
2022-08-23T20:46:53.179Z,2.90
2022-08-23T20:49:21.958Z,3.30
2022-08-23T20:51:49.008Z,2.90
2022-08-23T20:54:17.106Z,3.17
2022-08-23T20:56:43.945Z,2.80
2022-08-23T20:59:12.778Z,2.80
2022-08-23T21:01:39.470Z,2.73
2022-08-23T21:04:07.160Z,3.10
2022-08-23T21:06:45.173Z,2.87
2022-08-23T21:09:16.777Z,3.13
2022-08-23T21:11:44.094Z,3.20
2022-08-23T21:14:11.104Z,3.43
2022-08-23T21:16:37.968Z,3.00
2022-08-23T21:19:05.424Z,3.13
2022-08-23T21:21:32.769Z,3.03
2022-08-23T21:23:59.387Z,2.43
2022-08-23T21:26:26.305Z,2.70
2022-08-23T21:28:53.117Z,3.10
2022-08-23T21:31:23.481Z,2.60
2022-08-23T21:33:51.207Z,2.60
2022-08-23T21:36:20.119Z,2.77
2022-08-23T21:38:46.762Z,2.80
2022-08-23T21:41:48.277Z,3.03
2022-08-23T21:44:20.966Z,2.67
2022-08-23T21:46:48.483Z,2.77
2022-08-23T21:49:16.238Z,2.30
2022-08-23T21:51:44.514Z,2.73
2022-08-23T21:54:12.745Z,2.40
2022-08-23T21:56:40.187Z,2.50
2022-08-23T21:59:09.629Z,2.63
2022-08-23T22:01:37.050Z,2.40
2022-08-23T22:04:09.033Z,2.40
2022-08-23T22:06:38.135Z,2.43
2022-08-23T22:09:07.792Z,2.40
2022-08-23T22:11:40.589Z,2.47
2022-08-23T22:14:31.360Z,2.40
2022-08-23T22:16:59.491Z,2.20
2022-08-23T22:19:26.711Z,2.60
2022-08-23T22:21:53.452Z,2.80
2022-08-23T22:24:25.629Z,2.23
2022-08-23T22:26:53.292Z,2.53
2022-08-23T22:29:19.950Z,2.57
2022-08-23T22:31:47.907Z,2.57
2022-08-23T22:34:14.804Z,2.20
2022-08-23T22:36:41.951Z,2.10
2022-08-23T22:39:08.631Z,2.63
2022-08-23T22:41:35.366Z,2.37
2022-08-23T22:44:03.254Z,2.60
2022-08-23T22:46:32.031Z,2.50
2022-08-23T22:49:00.670Z,2.63
2022-08-23T22:51:31.002Z,2.63
2022-08-23T22:54:00.955Z,2.83
2022-08-23T22:56:30.733Z,2.90
2022-08-23T22:58:58.011Z,2.53
2022-08-23T23:01:32.197Z,3.17
2022-08-23T23:04:02.955Z,2.80
2022-08-23T23:06:31.232Z,2.73
2022-08-23T23:08:58.299Z,3.10
2022-08-23T23:11:25.370Z,2.93
2022-08-23T23:13:52.797Z,2.60
2022-08-23T23:16:23.288Z,2.77
2022-08-23T23:19:09.427Z,3.07
2022-08-23T23:21:42.542Z,2.70
2022-08-23T23:24:10.827Z,2.80
2022-08-23T23:26:38.131Z,3.03
2022-08-23T23:29:06.567Z,2.20
2022-08-23T23:31:33.426Z,3.07
2022-08-23T23:34:00.096Z,2.77
2022-08-23T23:36:26.860Z,2.60
2022-08-23T23:38:53.889Z,2.83
2022-08-23T23:41:20.934Z,2.77
2022-08-23T23:43:48.541Z,2.50
2022-08-23T23:46:17.648Z,2.80
2022-08-23T23:48:46.970Z,2.63
2022-08-23T23:51:20.220Z,2.83
2022-08-23T23:53:46.864Z,2.77
2022-08-23T23:56:15.136Z,2.63
2022-08-23T23:58:42.132Z,2.50
